Felix — FJVE — position and weather

sailwx.info

Track history (hours):
 
Tides and Currents Weather Stations Pressure Air Temp Water Temp Dewpoint Dewpoint Depression Visibility Wind Speed Wind Dir Waves Ship Positions

Felix

Last reported at 2017-Sep-02 03:09 UTC. Time now 2017-Sep-26 09:26 UTC.
Position N 49°54' W 001°05'.
Warning: this ship's position is 24 days out of date.

Length 23 m; draft 2.3 m.

Type: Ship. MMSI: 228078900.

Date/timePositionNaut miles runAvg speedWind from/ knotsBaromVisibWave heightAir tempDewpointWater temp
2017-Sep-02 03:09N 49°54' W 001°05'210.2
2017-Sep-02 02:59N 49°54' W 001°07'510.1
2017-Sep-02 02:30N 49°54' W 001°15'5 9.5
2017-Sep-02 02:00N 49°54' W 001°22'4 8.8
2017-Sep-02 01:30N 49°53' W 001°29'4 8.7
2017-Sep-02 01:01N 49°53' W 001°36'4 7.9
2017-Sep-02 00:30N 49°53' W 001°42'4 7.7
2017-Sep-02 00:00N 49°52' W 001°48'35 7.9
2017-Sep-01 19:35N 49°49' W 002°41'1 9.3
2017-Sep-01 19:30N 49°49' W 002°42'5 9.3
2017-Sep-01 19:01N 49°47' W 002°49'12 9.5
2017-Sep-01 17:45N 49°40' W 003°04'3 9.7
2017-Sep-01 17:27N 49°38' W 003°07'6 9.6
2017-Sep-01 16:52N 49°34' W 003°13'77 9.4
2017-Sep-01 08:38N 48°41' W 004°39'1 9.0
2017-Sep-01 08:29N 48°40' W 004°41'4 9.0
2017-Sep-01 08:01N 48°37' W 004°45'4 9.0
2017-Sep-01 07:31N 48°33' W 004°48'5 9.3
2017-Sep-01 07:01N 48°29' W 004°49'6 9.2
2017-Sep-01 06:25N 48°23' W 004°48'3 8.6
2017-Sep-01 06:00N 48°20' W 004°48'4 8.6
2017-Sep-01 05:30N 48°19' W 004°42'5 9.9
2017-Sep-01 05:00N 48°21' W 004°34'4 8.0
2017-Sep-01 04:31N 48°23' W 004°29'0 0.7
2017-Sep-01 04:01N 48°23' W 004°29'0 0.0
2017-Sep-01 03:30N 48°23' W 004°29'0 0.0
2017-Sep-01 03:00N 48°23' W 004°29'0 0.0
2017-Sep-01 02:30N 48°23' W 004°29'0 0.0
2017-Sep-01 02:01N 48°23' W 004°29'0 0.0
2017-Sep-01 01:31N 48°23' W 004°29'0 0.0
2017-Sep-01 01:01N 48°23' W 004°29'0 0.0
2017-Sep-01 00:31N 48°23' W 004°29'0 0.0
2017-Sep-01 00:00N 48°23' W 004°29'0 0.0
2017-Aug-31 23:31N 48°23' W 004°29'0 0.0
2017-Aug-31 23:01N 48°23' W 004°29'0 0.0
2017-Aug-31 22:31N 48°23' W 004°29'0 0.0
2017-Aug-31 22:00N 48°23' W 004°29'0 0.0
2017-Aug-31 21:31N 48°23' W 004°29'0 0.0
2017-Aug-31 21:00N 48°23' W 004°29'0 0.0
2017-Aug-31 20:31N 48°23' W 004°29'0 0.0
2017-Aug-31 20:00N 48°23' W 004°29'0 0.0
2017-Aug-31 19:31N 48°23' W 004°29'0 0.0
2017-Aug-31 19:01N 48°23' W 004°29'0 0.0
2017-Aug-31 18:30N 48°23' W 004°29'0 0.0
2017-Aug-31 18:00N 48°23' W 004°29'0 0.0
2017-Aug-31 17:31N 48°23' W 004°29'0 0.0
2017-Aug-31 17:00N 48°23' W 004°29'0 0.0
2017-Aug-31 16:31N 48°23' W 004°29'0 0.2
2017-Aug-31 16:00N 48°23' W 004°29'0 0.0
2017-Aug-31 15:31N 48°23' W 004°29'0 0.2
2017-Aug-31 15:00N 48°23' W 004°29'0 0.0
2017-Aug-31 14:30N 48°23' W 004°29'0 0.0
2017-Aug-31 14:00N 48°23' W 004°29'0 0.0
2017-Aug-31 13:30N 48°23' W 004°29'0 0.0
2017-Aug-31 13:00N 48°23' W 004°29'0 0.0
2017-Aug-31 12:30N 48°23' W 004°29'0 0.0
2017-Aug-31 12:00N 48°23' W 004°29'0 0.0
2017-Aug-31 11:30N 48°23' W 004°29'0 0.0
2017-Aug-31 11:00N 48°23' W 004°29'0 0.0
2017-Aug-31 10:30N 48°23' W 004°29'0 0.0
2017-Aug-31 10:00N 48°23' W 004°29'0 0.0
2017-Aug-31 09:30N 48°23' W 004°29'0 0.0
2017-Aug-31 09:00N 48°23' W 004°29'0 0.0
2017-Aug-31 08:30N 48°23' W 004°29'0 0.0
2017-Aug-31 08:00N 48°23' W 004°29'0 0.0
2017-Aug-31 07:30N 48°23' W 004°29'0 0.0
2017-Aug-31 07:00N 48°23' W 004°29'0 0.0
2017-Aug-31 06:30N 48°23' W 004°29'0 0.0
2017-Aug-31 06:00N 48°23' W 004°29'0 0.0
2017-Aug-31 05:30N 48°23' W 004°29'0 0.0
2017-Aug-31 05:00N 48°23' W 004°29'0 0.0
2017-Aug-31 04:30N 48°23' W 004°29'0 0.0
2017-Aug-31 04:00N 48°23' W 004°29'0 0.0
2017-Aug-31 03:30N 48°23' W 004°29'0 0.0
2017-Aug-31 03:00N 48°23' W 004°29'0 0.0
2017-Aug-31 02:30N 48°23' W 004°29'0 0.0
2017-Aug-31 02:00N 48°23' W 004°29'0 0.0
2017-Aug-31 01:30N 48°23' W 004°29'0 0.0
2017-Aug-31 01:00N 48°23' W 004°29'0 0.0
2017-Aug-31 00:30N 48°23' W 004°29'0 0.0
2017-Aug-31 00:00N 48°23' W 004°29'0 0.0
2017-Aug-30 23:30N 48°23' W 004°29'0 0.0
2017-Aug-30 23:00N 48°23' W 004°29'0 0.0
2017-Aug-30 22:30N 48°23' W 004°29'0 0.0
2017-Aug-30 22:00N 48°23' W 004°29'0 0.0
2017-Aug-30 21:30N 48°23' W 004°29'0 0.0
2017-Aug-30 21:00N 48°23' W 004°29'0 0.0
2017-Aug-30 20:30N 48°23' W 004°29'0 0.0
2017-Aug-30 20:00N 48°23' W 004°29'0 0.0
2017-Aug-30 19:30N 48°23' W 004°29'0 0.0
2017-Aug-30 19:00N 48°23' W 004°29'0 0.0
2017-Aug-30 18:30N 48°23' W 004°29'0 0.0
2017-Aug-30 18:00N 48°23' W 004°29'0 0.0
2017-Aug-30 17:30N 48°23' W 004°29'0 0.0
2017-Aug-30 17:00N 48°23' W 004°29'0 0.0
2017-Aug-30 16:30N 48°23' W 004°29'0 0.0
2017-Aug-30 16:00N 48°23' W 004°29'0 0.0
2017-Aug-30 15:30N 48°23' W 004°29'0 0.0
2017-Aug-30 15:00N 48°23' W 004°29'0 0.0
2017-Aug-30 14:30N 48°23' W 004°29'0 0.0
2017-Aug-30 14:00N 48°23' W 004°29'0 0.0
2017-Aug-30 13:30N 48°23' W 004°29'0 0.0
2017-Aug-30 13:00N 48°23' W 004°29'0 0.0
2017-Aug-30 12:30N 48°23' W 004°29'0 0.0
2017-Aug-30 12:00N 48°23' W 004°29'0 0.0
2017-Aug-30 11:30N 48°23' W 004°29'0 0.0
2017-Aug-30 11:00N 48°23' W 004°29'0 0.0
2017-Aug-30 10:30N 48°23' W 004°29'0 0.0
2017-Aug-30 10:00N 48°23' W 004°29'0 0.0
2017-Aug-30 09:30N 48°23' W 004°29'0 0.0
2017-Aug-30 09:00N 48°23' W 004°29'0 0.0
2017-Aug-30 08:30N 48°23' W 004°29'0 0.0
2017-Aug-30 08:00N 48°23' W 004°29'0 0.0
2017-Aug-30 07:30N 48°23' W 004°29'0 0.0
2017-Aug-30 07:00N 48°23' W 004°29'0 0.0
2017-Aug-30 06:30N 48°23' W 004°29'0 0.0
2017-Aug-30 06:00N 48°23' W 004°29'0 0.0
2017-Aug-30 05:30N 48°23' W 004°29'0 0.0
2017-Aug-30 05:00N 48°23' W 004°29'0 0.0
2017-Aug-30 04:30N 48°23' W 004°29'0 0.0
2017-Aug-30 04:00N 48°23' W 004°29'0 0.0
2017-Aug-30 03:30N 48°23' W 004°29'0 0.0
2017-Aug-30 03:00N 48°23' W 004°29'0 0.0
2017-Aug-30 02:30N 48°23' W 004°29'0 0.0
2017-Aug-30 02:00N 48°23' W 004°29'0 0.0
2017-Aug-30 01:30N 48°23' W 004°29'0 0.0
2017-Aug-30 01:00N 48°23' W 004°29'0 0.0
2017-Aug-30 00:30N 48°23' W 004°29'0 0.0
2017-Aug-30 00:00N 48°23' W 004°29'0 0.0
2017-Aug-29 23:30N 48°23' W 004°29'0 0.0
2017-Aug-29 23:00N 48°23' W 004°29'0 0.0
2017-Aug-29 22:30N 48°23' W 004°29'0 0.0
2017-Aug-29 22:00N 48°23' W 004°29'0 0.0
2017-Aug-29 21:30N 48°23' W 004°29'0 0.0
2017-Aug-29 21:00N 48°23' W 004°29'0 0.0
2017-Aug-29 20:30N 48°23' W 004°29'0 0.0
2017-Aug-29 20:00N 48°23' W 004°29'0 0.0
2017-Aug-29 19:30N 48°23' W 004°29'0 0.0
2017-Aug-29 19:00N 48°23' W 004°29'0 0.0
2017-Aug-29 18:30N 48°23' W 004°29'0 0.0
2017-Aug-29 18:00N 48°23' W 004°29'0 0.0
2017-Aug-29 17:30N 48°23' W 004°29'0 0.0
2017-Aug-29 17:00N 48°23' W 004°29'0 0.1
2017-Aug-29 16:28N 48°23' W 004°29'0 0.0
2017-Aug-29 15:58N 48°23' W 004°29'1 1.5
2017-Aug-29 15:30N 48°22' W 004°29'4 8.6
2017-Aug-29 15:00N 48°20' W 004°35'4 8.9
2017-Aug-29 14:30N 48°17' W 004°39'4 8.9
2017-Aug-29 14:00N 48°13' W 004°44'4 8.5
2017-Aug-29 13:30N 48°09' W 004°45'4 8.7
2017-Aug-29 13:00N 48°05' W 004°45'3 7.0
2017-Aug-29 12:30N 48°01' W 004°45'5 8.5
2017-Aug-29 11:59N 47°58' W 004°41'20 9.0
2017-Aug-29 09:48N 47°45' W 004°18'22 9.6
2017-Aug-29 07:30N 47°39' W 003°47'510.8
2017-Aug-29 07:00N 47°37' W 003°39'510.4
2017-Aug-29 06:30N 47°37' W 003°32'5 9.0
2017-Aug-29 06:00N 47°36' W 003°25'4 8.6
2017-Aug-29 05:30N 47°35' W 003°19'3 6.0
2017-Aug-29 05:00N 47°35' W 003°14'1 2.9
2017-Aug-29 04:31N 47°35' W 003°12'0 0.4
2017-Aug-29 04:00N 47°35' W 003°12'0 0.1
2017-Aug-29 03:30N 47°35' W 003°12'1 1.1
2017-Aug-29 03:00N 47°35' W 003°13'2 3.0
2017-Aug-29 02:31N 47°35' W 003°11'2 3.0
2017-Aug-29 02:00N 47°35' W 003°13'1 1.1
2017-Aug-29 01:30N 47°35' W 003°12'1 1.1
2017-Aug-29 01:00N 47°35' W 003°12'1 3.0
2017-Aug-29 00:31N 47°35' W 003°14'1 3.0
2017-Aug-29 00:00N 47°35' W 003°12'0 0.4
2017-Aug-28 23:30N 47°35' W 003°12'1 3.0
2017-Aug-28 23:01N 47°35' W 003°14'2 3.0
2017-Aug-28 22:30N 47°35' W 003°12'0 0.7
2017-Aug-28 22:00N 47°35' W 003°11'2 3.1
2017-Aug-28 21:30N 47°35' W 003°13'1 2.0
2017-Aug-28 21:00N 47°35' W 003°12'1 1.4
2017-Aug-28 20:30N 47°36' W 003°11'2 3.3
2017-Aug-28 20:00N 47°35' W 003°13'1 1.6
2017-Aug-28 19:30N 47°35' W 003°12'1 2.6
2017-Aug-28 19:00N 47°36' W 003°11'1 2.9
2017-Aug-28 18:30N 47°35' W 003°13'0 0.6
2017-Aug-28 18:00N 47°35' W 003°13'0 0.6
2017-Aug-28 17:31N 47°35' W 003°13'2 3.7
2017-Aug-28 17:00N 47°35' W 003°15'2 3.8
2017-Aug-28 16:30N 47°34' W 003°18'1 2.5
2017-Aug-28 16:00N 47°35' W 003°16'2 3.5
2017-Aug-28 15:30N 47°35' W 003°14'2 3.4
2017-Aug-28 15:00N 47°36' W 003°11'0 0.7
2017-Aug-28 14:30N 47°35' W 003°12'1 1.4
2017-Aug-28 14:00N 47°35' W 003°13'0 0.2
2017-Aug-28 13:30N 47°35' W 003°13'0 0.6
2017-Aug-28 13:00N 47°35' W 003°12'1 1.2
2017-Aug-28 12:30N 47°35' W 003°13'1 1.8
2017-Aug-28 12:00N 47°35' W 003°12'1 1.0
2017-Aug-28 11:30N 47°35' W 003°12'1 1.4
2017-Aug-28 11:00N 47°35' W 003°13'2 3.3
2017-Aug-28 10:30N 47°35' W 003°11'0 0.6
2017-Aug-28 10:00N 47°36' W 003°11'0 0.4
2017-Aug-28 09:30N 47°36' W 003°11'1 1.1
2017-Aug-28 09:00N 47°36' W 003°12'1 1.9
2017-Aug-28 08:30N 47°36' W 003°10'1 2.6
2017-Aug-28 08:00N 47°35' W 003°12'1 2.6
2017-Aug-28 07:31N 47°36' W 003°10'1 2.7
2017-Aug-28 07:00N 47°35' W 003°12'2 4.0
2017-Aug-28 06:30N 47°35' W 003°15'1 2.4
2017-Aug-28 06:00N 47°35' W 003°13'1 2.4
2017-Aug-28 05:30N 47°35' W 003°12'2 3.4
2017-Aug-28 05:00N 47°35' W 003°14'1 2.0
2017-Aug-28 04:30N 47°35' W 003°13'0 0.7
2017-Aug-28 04:00N 47°35' W 003°12'1 1.3
2017-Aug-28 03:30N 47°35' W 003°13'1 2.0
2017-Aug-28 03:00N 47°35' W 003°12'1 2.7
2017-Aug-28 02:31N 47°35' W 003°14'1 2.8
2017-Aug-28 02:00N 47°35' W 003°12'1 2.6
2017-Aug-28 01:31N 47°35' W 003°13'1 2.0
2017-Aug-28 01:00N 47°35' W 003°12'1 1.0
2017-Aug-28 00:30N 47°35' W 003°13'2 3.5
2017-Aug-28 00:01N 47°36' W 003°10'1 2.9
2017-Aug-27 23:31N 47°35' W 003°12'1 2.8
2017-Aug-27 23:01N 47°36' W 003°10'1 2.6
2017-Aug-27 22:31N 47°35' W 003°12'1 2.1
2017-Aug-27 22:00N 47°36' W 003°11'1 1.1
2017-Aug-27 21:30N 47°36' W 003°12'0 0.9
2017-Aug-27 21:00N 47°36' W 003°11'1 2.7
2017-Aug-27 20:31N 47°35' W 003°13'0 0.9
2017-Aug-27 20:00N 47°35' W 003°12'1 2.0
2017-Aug-27 19:30N 47°36' W 003°11'2 3.4
2017-Aug-27 19:00N 47°35' W 003°13'1 2.9
2017-Aug-27 18:30N 47°35' W 003°15'1 2.5
2017-Aug-27 18:00N 47°34' W 003°17'1 2.5
2017-Aug-27 17:30N 47°34' W 003°19'1 1.8
2017-Aug-27 17:00N 47°34' W 003°17'1 2.6
2017-Aug-27 16:30N 47°35' W 003°16'2 3.0
2017-Aug-27 16:00N 47°35' W 003°13'2 3.1
2017-Aug-27 15:30N 47°36' W 003°11'0 0.7
2017-Aug-27 15:00N 47°35' W 003°11'2 3.4
2017-Aug-27 14:30N 47°35' W 003°13'0 1.0
2017-Aug-27 14:00N 47°35' W 003°13'1 2.5
2017-Aug-27 13:31N 47°36' W 003°11'2 3.5
2017-Aug-27 13:00N 47°35' W 003°13'1 1.5
2017-Aug-27 12:30N 47°35' W 003°12'1 1.0
2017-Aug-27 12:00N 47°35' W 003°12'1 2.9
2017-Aug-27 11:30N 47°35' W 003°14'0 0.9
2017-Aug-27 11:00N 47°35' W 003°14'2 3.2
2017-Aug-27 10:30N 47°34' W 003°16'2 3.3
2017-Aug-27 10:00N 47°34' W 003°19'2 3.2
2017-Aug-27 09:30N 47°34' W 003°17'2 3.8
2017-Aug-27 09:00N 47°35' W 003°14'2 3.8
2017-Aug-27 08:30N 47°36' W 003°11'0 0.6
2017-Aug-27 08:00N 47°36' W 003°11'2 3.4
2017-Aug-27 07:30N 47°35' W 003°13'2 3.2
2017-Aug-27 07:00N 47°35' W 003°15'2 3.3
2017-Aug-27 06:30N 47°34' W 003°18'0 0.6
2017-Aug-27 06:00N 47°34' W 003°17'0 0.1
2017-Aug-27 05:30N 47°34' W 003°17'1 1.3
2017-Aug-27 05:00N 47°34' W 003°18'2 3.3
2017-Aug-27 04:30N 47°35' W 003°16'2 3.4
2017-Aug-27 04:00N 47°35' W 003°13'1 2.7
2017-Aug-27 03:30N 47°36' W 003°12'2 3.3
2017-Aug-27 03:00N 47°35' W 003°14'2 3.2
2017-Aug-27 02:30N 47°35' W 003°16'2 3.0
2017-Aug-27 02:01N 47°34' W 003°18'1 2.5
2017-Aug-27 01:30N 47°34' W 003°16'2 3.9
2017-Aug-27 01:00N 47°35' W 003°14'1 1.3
2017-Aug-27 00:30N 47°35' W 003°15'1 2.9
2017-Aug-27 00:00N 47°34' W 003°17'1 2.8
2017-Aug-26 23:30N 47°34' W 003°19'2 3.6
2017-Aug-26 23:00N 47°34' W 003°16'2 4.0
2017-Aug-26 22:30N 47°35' W 003°13'1 1.2
2017-Aug-26 22:00N 47°35' W 003°13'2 3.0
2017-Aug-26 21:30N 47°35' W 003°15'2 3.0
2017-Aug-26 21:00N 47°34' W 003°17'2 3.3
2017-Aug-26 20:30N 47°34' W 003°19'1 1.6
2017-Aug-26 20:00N 47°33' W 003°18'0 0.6
2017-Aug-26 19:30N 47°34' W 003°18'1 2.4
2017-Aug-26 19:00N 47°35' W 003°19'5 9.3
2017-Aug-26 18:30N 47°39' W 003°21'4 8.4
2017-Aug-26 18:01N 47°43' W 003°22'2 2.9
2017-Aug-26 17:29N 47°45' W 003°21'0 0.0
2017-Aug-26 16:59N 47°45' W 003°21'0 0.0
2017-Aug-26 16:29N 47°45' W 003°21'0 0.0
2017-Aug-26 15:59N 47°45' W 003°21'0 0.0
2017-Aug-26 15:29N 47°45' W 003°21'0 0.0
2017-Aug-26 14:59N 47°45' W 003°21'0 0.0
2017-Aug-26 13:59N 47°45' W 003°21'0 0.0
2017-Aug-26 13:29N 47°45' W 003°21'0 0.0
2017-Aug-26 12:59N 47°45' W 003°21'0 0.0
2017-Aug-26 12:29N 47°45' W 003°21'0 0.0
2017-Aug-26 12:00N 47°45' W 003°21'4 7.1
2017-Aug-26 11:30N 47°41' W 003°22'4 7.0
2017-Aug-26 11:00N 47°39' W 003°19'4 8.7
2017-Aug-26 10:30N 47°37' W 003°13'1 2.8
2017-Aug-26 10:00N 47°36' W 003°12'2 3.8
2017-Aug-26 09:30N 47°35' W 003°14'2 3.8
2017-Aug-26 09:00N 47°34' W 003°17'1 2.3
2017-Aug-26 08:30N 47°34' W 003°19'2 4.1
2017-Aug-26 08:00N 47°35' W 003°16'2 4.1
2017-Aug-26 07:30N 47°35' W 003°13'0 0.9
2017-Aug-26 07:00N 47°35' W 003°12'2 3.8
2017-Aug-26 06:30N 47°35' W 003°15'2 3.8
2017-Aug-26 06:00N 47°34' W 003°18'0 0.4
2017-Aug-26 05:30N 47°34' W 003°18'1 2.9
2017-Aug-26 05:00N 47°35' W 003°16'0 0.5
2017-Aug-26 04:30N 47°35' W 003°16'2 3.3
2017-Aug-26 04:00N 47°35' W 003°13'1 2.2
2017-Aug-26 03:30N 47°36' W 003°12'2 3.5
2017-Aug-26 03:00N 47°35' W 003°14'2 3.2
2017-Aug-26 02:30N 47°34' W 003°16'1 3.0
2017-Aug-26 02:01N 47°34' W 003°19'1 2.7
2017-Aug-26 01:30N 47°35' W 003°20'1 2.1
2017-Aug-26 01:00N 47°34' W 003°19'2 3.9
2017-Aug-26 00:30N 47°35' W 003°16'2 3.8
2017-Aug-26 00:00N 47°35' W 003°14'1 1.9
2017-Aug-25 23:30N 47°35' W 003°12'2 3.3
2017-Aug-25 23:00N 47°35' W 003°14'2 3.2
2017-Aug-25 22:30N 47°34' W 003°17'2 3.1
2017-Aug-25 22:00N 47°34' W 003°19'0 0.5
2017-Aug-25 21:30N 47°34' W 003°19'1 2.2
2017-Aug-25 21:00N 47°34' W 003°17'1 2.8
2017-Aug-25 20:30N 47°35' W 003°15'1 2.9
2017-Aug-25 20:00N 47°35' W 003°13'1 2.8
2017-Aug-25 19:31N 47°36' W 003°11'0 0.7
2017-Aug-25 19:00N 47°36' W 003°12'1 2.5
2017-Aug-25 18:30N 47°35' W 003°13'1 2.4
2017-Aug-25 18:00N 47°35' W 003°15'1 2.3
2017-Aug-25 17:30N 47°34' W 003°17'1 2.0
2017-Aug-25 17:00N 47°34' W 003°18'0 0.3
2017-Aug-25 16:30N 47°34' W 003°18'0 0.5
2017-Aug-25 16:00N 47°34' W 003°18'1 2.5
2017-Aug-25 15:30N 47°33' W 003°19'1 2.2
2017-Aug-25 15:00N 47°34' W 003°18'0 0.9
2017-Aug-25 14:31N 47°34' W 003°18'1 1.4
2017-Aug-25 13:30N 47°33' W 003°19'0 0.5
2017-Aug-25 13:00N 47°34' W 003°19'2 3.4
2017-Aug-25 12:30N 47°33' W 003°21'1 1.2
2017-Aug-25 12:00N 47°33' W 003°22'0 0.4
2017-Aug-25 11:31N 47°33' W 003°22'1 1.5
2017-Aug-25 11:00N 47°32' W 003°23'0 0.1
2017-Aug-25 10:31N 47°32' W 003°23'2 3.7
2017-Aug-25 10:00N 47°33' W 003°21'2 4.0
2017-Aug-25 09:30N 47°34' W 003°18'2 3.7
2017-Aug-25 09:00N 47°33' W 003°20'0 0.6
2017-Aug-25 08:31N 47°33' W 003°21'2 3.3
2017-Aug-25 08:00N 47°34' W 003°19'0 0.3
2017-Aug-25 07:30N 47°34' W 003°19'1 2.4
2017-Aug-25 07:00N 47°33' W 003°20'1 1.9
2017-Aug-25 06:30N 47°34' W 003°19'0 0.9
2017-Aug-25 06:00N 47°34' W 003°18'1 1.2
2017-Aug-25 05:30N 47°34' W 003°19'1 2.5
2017-Aug-25 05:00N 47°33' W 003°21'2 3.6
2017-Aug-25 04:30N 47°34' W 003°18'0 0.4
2017-Aug-25 04:00N 47°34' W 003°19'1 2.9
2017-Aug-25 03:30N 47°33' W 003°20'2 3.4
2017-Aug-25 03:00N 47°34' W 003°18'0 0.7
2017-Aug-25 02:30N 47°34' W 003°19'1 3.0
2017-Aug-25 02:00N 47°33' W 003°21'2 3.6
2017-Aug-25 01:30N 47°34' W 003°18'1 1.1
2017-Aug-25 01:00N 47°34' W 003°19'1 2.1
2017-Aug-25 00:31N 47°33' W 003°20'2 3.9
2017-Aug-25 00:00N 47°34' W 003°18'1 1.1
2017-Aug-24 23:30N 47°34' W 003°19'1 2.6
2017-Aug-24 23:00N 47°33' W 003°20'1 1.1
2017-Aug-24 22:30N 47°34' W 003°19'1 2.2
2017-Aug-24 22:00N 47°34' W 003°18'2 3.1
2017-Aug-24 21:30N 47°33' W 003°20'1 1.5
2017-Aug-24 21:00N 47°34' W 003°19'1 1.2
2017-Aug-24 20:30N 47°34' W 003°18'1 3.0
2017-Aug-24 20:00N 47°33' W 003°20'1 2.0
2017-Aug-24 19:30N 47°34' W 003°19'0 1.0
2017-Aug-24 19:00N 47°34' W 003°18'2 3.1
2017-Aug-24 18:30N 47°33' W 003°20'1 1.3
2017-Aug-24 18:00N 47°33' W 003°20'1 1.7
2017-Aug-24 17:30N 47°33' W 003°20'1 1.0
2017-Aug-24 17:00N 47°33' W 003°20'0 0.4
2017-Aug-24 16:30N 47°33' W 003°20'0 0.2
2017-Aug-24 16:01N 47°33' W 003°20'0 0.6
2017-Aug-24 15:30N 47°33' W 003°20'0 0.9
2017-Aug-24 15:00N 47°33' W 003°20'1 1.0
2017-Aug-24 14:30N 47°33' W 003°20'1 1.3
2017-Aug-24 14:00N 47°33' W 003°20'1 1.6
2017-Aug-24 13:30N 47°33' W 003°21'1 1.5
2017-Aug-24 13:00N 47°33' W 003°20'1 1.3
2017-Aug-24 12:30N 47°33' W 003°20'1 1.6
2017-Aug-24 12:00N 47°34' W 003°20'1 1.3
2017-Aug-24 11:30N 47°33' W 003°21'1 1.4
2017-Aug-24 11:01N 47°34' W 003°20'1 1.8
2017-Aug-24 10:30N 47°33' W 003°20'1 2.7
2017-Aug-24 10:00N 47°33' W 003°22'0 0.4
2017-Aug-24 09:30N 47°33' W 003°22'1 2.3
2017-Aug-24 09:00N 47°33' W 003°20'2 3.5
2017-Aug-24 08:30N 47°33' W 003°23'1 2.1
2017-Aug-24 08:00N 47°33' W 003°21'0 0.6
2017-Aug-24 07:30N 47°33' W 003°21'1 2.8
2017-Aug-24 07:00N 47°33' W 003°23'1 2.9
2017-Aug-24 06:30N 47°33' W 003°20'1 1.4
2017-Aug-24 06:00N 47°33' W 003°19'1 1.7
2017-Aug-24 05:30N 47°33' W 003°21'1 2.2
2017-Aug-24 05:00N 47°33' W 003°22'1 2.7
2017-Aug-24 04:30N 47°33' W 003°20'1 1.1
2017-Aug-24 04:00N 47°33' W 003°21'1 1.5
2017-Aug-24 03:30N 47°33' W 003°22'1 2.8
2017-Aug-24 03:00N 47°33' W 003°20'1 1.3
2017-Aug-24 02:30N 47°33' W 003°21'1 1.9
2017-Aug-24 02:00N 47°33' W 003°22'1 2.8
2017-Aug-24 01:30N 47°33' W 003°20'0 0.8
2017-Aug-24 01:00N 47°33' W 003°21'1 2.1
2017-Aug-24 00:31N 47°33' W 003°22'1 2.7
2017-Aug-24 00:00N 47°33' W 003°21'0 0.9
2017-Aug-23 23:30N 47°33' W 003°21'1 1.5
2017-Aug-23 23:00N 47°33' W 003°22'1 2.5
2017-Aug-23 22:30N 47°32' W 003°23'2 3.4
2017-Aug-23 22:01N 47°33' W 003°22'1 2.7
2017-Aug-23 21:30N 47°32' W 003°23'0 0.9
2017-Aug-23 21:00N 47°32' W 003°23'0 0.8
2017-Aug-23 20:31N 47°33' W 003°22'1 2.0
2017-Aug-23 20:00N 47°33' W 003°21'5 9.5
2017-Aug-23 19:30N 47°38' W 003°21'5 9.7
2017-Aug-23 19:01N 47°43' W 003°22'2 4.1
2017-Aug-23 18:30N 47°45' W 003°21'0 0.0
2017-Aug-23 17:58N 47°45' W 003°21'0 0.0
2017-Aug-23 17:28N 47°45' W 003°21'0 0.0
2017-Aug-23 16:58N 47°45' W 003°21'0 0.0
2017-Aug-23 16:28N 47°45' W 003°21'0 0.0
2017-Aug-23 15:58N 47°45' W 003°21'0 0.0
2017-Aug-23 15:28N 47°45' W 003°21'0 0.0
2017-Aug-23 14:58N 47°45' W 003°21'0 0.0
2017-Aug-23 14:28N 47°45' W 003°21'0 0.0
2017-Aug-23 13:28N 47°45' W 003°21'0 0.0
2017-Aug-23 12:58N 47°45' W 003°21'0 0.0
2017-Aug-23 12:28N 47°45' W 003°21'0 0.0
2017-Aug-23 11:58N 47°45' W 003°21'0 0.0
2017-Aug-23 11:28N 47°45' W 003°21'0 0.0
2017-Aug-23 10:58N 47°45' W 003°21'0 0.0
2017-Aug-23 10:28N 47°45' W 003°21'0 0.0
2017-Aug-23 09:58N 47°45' W 003°21'0 0.0
2017-Aug-23 09:28N 47°45' W 003°21'0 0.0
2017-Aug-23 08:58N 47°45' W 003°21'0 0.0
2017-Aug-23 08:28N 47°45' W 003°21'0 0.0
2017-Aug-23 07:58N 47°45' W 003°21'0 0.0
2017-Aug-23 07:28N 47°45' W 003°21'0 0.0
2017-Aug-23 06:58N 47°45' W 003°21'0 0.0
2017-Aug-23 06:28N 47°45' W 003°21'0 0.0
2017-Aug-23 05:58N 47°45' W 003°21'0 0.0
2017-Aug-23 05:28N 47°45' W 003°21'0 0.0
2017-Aug-23 04:58N 47°45' W 003°21'0 0.0
2017-Aug-23 04:28N 47°45' W 003°21'0 0.0
2017-Aug-23 03:58N 47°45' W 003°21'0 0.0
2017-Aug-23 03:28N 47°45' W 003°21'  
Track history (hours):
 
Tides and Currents Weather Stations Pressure Air Temp Water Temp Dewpoint Dewpoint Depression Visibility Wind Speed Wind Dir Waves Ship Positions

Felix

Last reported at 2017-Sep-02 03:09 UTC. Time now 2017-Sep-26 09:26 UTC.
Position N 49°54' W 001°05'.
Warning: this ship's position is 24 days out of date.

Length 23 m; draft 2.3 m.

Type: Ship. MMSI: 228078900.

Date/timePositionNaut miles runAvg speedWind from/ knotsBaromVisibWave heightAir tempDewpointWater temp
2017-Sep-02 03:09N 49°54' W 001°05'210.2
2017-Sep-02 02:59N 49°54' W 001°07'510.1
2017-Sep-02 02:30N 49°54' W 001°15'5 9.5
2017-Sep-02 02:00N 49°54' W 001°22'4 8.8
2017-Sep-02 01:30N 49°53' W 001°29'4 8.7
2017-Sep-02 01:01N 49°53' W 001°36'4 7.9
2017-Sep-02 00:30N 49°53' W 001°42'4 7.7
2017-Sep-02 00:00N 49°52' W 001°48'35 7.9
2017-Sep-01 19:35N 49°49' W 002°41'1 9.3
2017-Sep-01 19:30N 49°49' W 002°42'5 9.3
2017-Sep-01 19:01N 49°47' W 002°49'12 9.5
2017-Sep-01 17:45N 49°40' W 003°04'3 9.7
2017-Sep-01 17:27N 49°38' W 003°07'6 9.6
2017-Sep-01 16:52N 49°34' W 003°13'77 9.4
2017-Sep-01 08:38N 48°41' W 004°39'1 9.0
2017-Sep-01 08:29N 48°40' W 004°41'4 9.0
2017-Sep-01 08:01N 48°37' W 004°45'4 9.0
2017-Sep-01 07:31N 48°33' W 004°48'5 9.3
2017-Sep-01 07:01N 48°29' W 004°49'6 9.2
2017-Sep-01 06:25N 48°23' W 004°48'3 8.6
2017-Sep-01 06:00N 48°20' W 004°48'4 8.6
2017-Sep-01 05:30N 48°19' W 004°42'5 9.9
2017-Sep-01 05:00N 48°21' W 004°34'4 8.0
2017-Sep-01 04:31N 48°23' W 004°29'0 0.7
2017-Sep-01 04:01N 48°23' W 004°29'0 0.0
2017-Sep-01 03:30N 48°23' W 004°29'0 0.0
2017-Sep-01 03:00N 48°23' W 004°29'0 0.0
2017-Sep-01 02:30N 48°23' W 004°29'0 0.0
2017-Sep-01 02:01N 48°23' W 004°29'0 0.0
2017-Sep-01 01:31N 48°23' W 004°29'0 0.0
2017-Sep-01 01:01N 48°23' W 004°29'0 0.0
2017-Sep-01 00:31N 48°23' W 004°29'0 0.0
2017-Sep-01 00:00N 48°23' W 004°29'0 0.0
2017-Aug-31 23:31N 48°23' W 004°29'0 0.0
2017-Aug-31 23:01N 48°23' W 004°29'0 0.0
2017-Aug-31 22:31N 48°23' W 004°29'0 0.0
2017-Aug-31 22:00N 48°23' W 004°29'0 0.0
2017-Aug-31 21:31N 48°23' W 004°29'0 0.0
2017-Aug-31 21:00N 48°23' W 004°29'0 0.0
2017-Aug-31 20:31N 48°23' W 004°29'0 0.0
2017-Aug-31 20:00N 48°23' W 004°29'0 0.0
2017-Aug-31 19:31N 48°23' W 004°29'0 0.0
2017-Aug-31 19:01N 48°23' W 004°29'0 0.0
2017-Aug-31 18:30N 48°23' W 004°29'0 0.0
2017-Aug-31 18:00N 48°23' W 004°29'0 0.0
2017-Aug-31 17:31N 48°23' W 004°29'0 0.0
2017-Aug-31 17:00N 48°23' W 004°29'0 0.0
2017-Aug-31 16:31N 48°23' W 004°29'0 0.2
2017-Aug-31 16:00N 48°23' W 004°29'0 0.0
2017-Aug-31 15:31N 48°23' W 004°29'0 0.2
2017-Aug-31 15:00N 48°23' W 004°29'0 0.0
2017-Aug-31 14:30N 48°23' W 004°29'0 0.0
2017-Aug-31 14:00N 48°23' W 004°29'0 0.0
2017-Aug-31 13:30N 48°23' W 004°29'0 0.0
2017-Aug-31 13:00N 48°23' W 004°29'0 0.0
2017-Aug-31 12:30N 48°23' W 004°29'0 0.0
2017-Aug-31 12:00N 48°23' W 004°29'0 0.0
2017-Aug-31 11:30N 48°23' W 004°29'0 0.0
2017-Aug-31 11:00N 48°23' W 004°29'0 0.0
2017-Aug-31 10:30N 48°23' W 004°29'0 0.0
2017-Aug-31 10:00N 48°23' W 004°29'0 0.0
2017-Aug-31 09:30N 48°23' W 004°29'0 0.0
2017-Aug-31 09:00N 48°23' W 004°29'0 0.0
2017-Aug-31 08:30N 48°23' W 004°29'0 0.0
2017-Aug-31 08:00N 48°23' W 004°29'0 0.0
2017-Aug-31 07:30N 48°23' W 004°29'0 0.0
2017-Aug-31 07:00N 48°23' W 004°29'0 0.0
2017-Aug-31 06:30N 48°23' W 004°29'0 0.0
2017-Aug-31 06:00N 48°23' W 004°29'0 0.0
2017-Aug-31 05:30N 48°23' W 004°29'0 0.0
2017-Aug-31 05:00N 48°23' W 004°29'0 0.0
2017-Aug-31 04:30N 48°23' W 004°29'0 0.0
2017-Aug-31 04:00N 48°23' W 004°29'0 0.0
2017-Aug-31 03:30N 48°23' W 004°29'0 0.0
2017-Aug-31 03:00N 48°23' W 004°29'0 0.0
2017-Aug-31 02:30N 48°23' W 004°29'0 0.0
2017-Aug-31 02:00N 48°23' W 004°29'0 0.0
2017-Aug-31 01:30N 48°23' W 004°29'0 0.0
2017-Aug-31 01:00N 48°23' W 004°29'0 0.0
2017-Aug-31 00:30N 48°23' W 004°29'0 0.0
2017-Aug-31 00:00N 48°23' W 004°29'0 0.0
2017-Aug-30 23:30N 48°23' W 004°29'0 0.0
2017-Aug-30 23:00N 48°23' W 004°29'0 0.0
2017-Aug-30 22:30N 48°23' W 004°29'0 0.0
2017-Aug-30 22:00N 48°23' W 004°29'0 0.0
2017-Aug-30 21:30N 48°23' W 004°29'0 0.0
2017-Aug-30 21:00N 48°23' W 004°29'0 0.0
2017-Aug-30 20:30N 48°23' W 004°29'0 0.0
2017-Aug-30 20:00N 48°23' W 004°29'0 0.0
2017-Aug-30 19:30N 48°23' W 004°29'0 0.0
2017-Aug-30 19:00N 48°23' W 004°29'0 0.0
2017-Aug-30 18:30N 48°23' W 004°29'0 0.0
2017-Aug-30 18:00N 48°23' W 004°29'0 0.0
2017-Aug-30 17:30N 48°23' W 004°29'0 0.0
2017-Aug-30 17:00N 48°23' W 004°29'0 0.0
2017-Aug-30 16:30N 48°23' W 004°29'0 0.0
2017-Aug-30 16:00N 48°23' W 004°29'0 0.0
2017-Aug-30 15:30N 48°23' W 004°29'0 0.0
2017-Aug-30 15:00N 48°23' W 004°29'0 0.0
2017-Aug-30 14:30N 48°23' W 004°29'0 0.0
2017-Aug-30 14:00N 48°23' W 004°29'0 0.0
2017-Aug-30 13:30N 48°23' W 004°29'0 0.0
2017-Aug-30 13:00N 48°23' W 004°29'0 0.0
2017-Aug-30 12:30N 48°23' W 004°29'0 0.0
2017-Aug-30 12:00N 48°23' W 004°29'0 0.0
2017-Aug-30 11:30N 48°23' W 004°29'0 0.0
2017-Aug-30 11:00N 48°23' W 004°29'0 0.0
2017-Aug-30 10:30N 48°23' W 004°29'0 0.0
2017-Aug-30 10:00N 48°23' W 004°29'0 0.0
2017-Aug-30 09:30N 48°23' W 004°29'0 0.0
2017-Aug-30 09:00N 48°23' W 004°29'0 0.0
2017-Aug-30 08:30N 48°23' W 004°29'0 0.0
2017-Aug-30 08:00N 48°23' W 004°29'0 0.0
2017-Aug-30 07:30N 48°23' W 004°29'0 0.0
2017-Aug-30 07:00N 48°23' W 004°29'0 0.0
2017-Aug-30 06:30N 48°23' W 004°29'0 0.0
2017-Aug-30 06:00N 48°23' W 004°29'0 0.0
2017-Aug-30 05:30N 48°23' W 004°29'0 0.0
2017-Aug-30 05:00N 48°23' W 004°29'0 0.0
2017-Aug-30 04:30N 48°23' W 004°29'0 0.0
2017-Aug-30 04:00N 48°23' W 004°29'0 0.0
2017-Aug-30 03:30N 48°23' W 004°29'0 0.0
2017-Aug-30 03:00N 48°23' W 004°29'0 0.0
2017-Aug-30 02:30N 48°23' W 004°29'0 0.0
2017-Aug-30 02:00N 48°23' W 004°29'0 0.0
2017-Aug-30 01:30N 48°23' W 004°29'0 0.0
2017-Aug-30 01:00N 48°23' W 004°29'0 0.0
2017-Aug-30 00:30N 48°23' W 004°29'0 0.0
2017-Aug-30 00:00N 48°23' W 004°29'0 0.0
2017-Aug-29 23:30N 48°23' W 004°29'0 0.0
2017-Aug-29 23:00N 48°23' W 004°29'0 0.0
2017-Aug-29 22:30N 48°23' W 004°29'0 0.0
2017-Aug-29 22:00N 48°23' W 004°29'0 0.0
2017-Aug-29 21:30N 48°23' W 004°29'0 0.0
2017-Aug-29 21:00N 48°23' W 004°29'0 0.0
2017-Aug-29 20:30N 48°23' W 004°29'0 0.0
2017-Aug-29 20:00N 48°23' W 004°29'0 0.0
2017-Aug-29 19:30N 48°23' W 004°29'0 0.0
2017-Aug-29 19:00N 48°23' W 004°29'0 0.0
2017-Aug-29 18:30N 48°23' W 004°29'0 0.0
2017-Aug-29 18:00N 48°23' W 004°29'0 0.0
2017-Aug-29 17:30N 48°23' W 004°29'0 0.0
2017-Aug-29 17:00N 48°23' W 004°29'0 0.1
2017-Aug-29 16:28N 48°23' W 004°29'0 0.0
2017-Aug-29 15:58N 48°23' W 004°29'1 1.5
2017-Aug-29 15:30N 48°22' W 004°29'4 8.6
2017-Aug-29 15:00N 48°20' W 004°35'4 8.9
2017-Aug-29 14:30N 48°17' W 004°39'4 8.9
2017-Aug-29 14:00N 48°13' W 004°44'4 8.5
2017-Aug-29 13:30N 48°09' W 004°45'4 8.7
2017-Aug-29 13:00N 48°05' W 004°45'3 7.0
2017-Aug-29 12:30N 48°01' W 004°45'5 8.5
2017-Aug-29 11:59N 47°58' W 004°41'20 9.0
2017-Aug-29 09:48N 47°45' W 004°18'22 9.6
2017-Aug-29 07:30N 47°39' W 003°47'510.8
2017-Aug-29 07:00N 47°37' W 003°39'510.4
2017-Aug-29 06:30N 47°37' W 003°32'5 9.0
2017-Aug-29 06:00N 47°36' W 003°25'4 8.6
2017-Aug-29 05:30N 47°35' W 003°19'3 6.0
2017-Aug-29 05:00N 47°35' W 003°14'1 2.9
2017-Aug-29 04:31N 47°35' W 003°12'0 0.4
2017-Aug-29 04:00N 47°35' W 003°12'0 0.1
2017-Aug-29 03:30N 47°35' W 003°12'1 1.1
2017-Aug-29 03:00N 47°35' W 003°13'2 3.0
2017-Aug-29 02:31N 47°35' W 003°11'2 3.0
2017-Aug-29 02:00N 47°35' W 003°13'1 1.1
2017-Aug-29 01:30N 47°35' W 003°12'1 1.1
2017-Aug-29 01:00N 47°35' W 003°12'1 3.0
2017-Aug-29 00:31N 47°35' W 003°14'1 3.0
2017-Aug-29 00:00N 47°35' W 003°12'0 0.4
2017-Aug-28 23:30N 47°35' W 003°12'1 3.0
2017-Aug-28 23:01N 47°35' W 003°14'2 3.0
2017-Aug-28 22:30N 47°35' W 003°12'0 0.7
2017-Aug-28 22:00N 47°35' W 003°11'2 3.1
2017-Aug-28 21:30N 47°35' W 003°13'1 2.0
2017-Aug-28 21:00N 47°35' W 003°12'1 1.4
2017-Aug-28 20:30N 47°36' W 003°11'2 3.3
2017-Aug-28 20:00N 47°35' W 003°13'1 1.6
2017-Aug-28 19:30N 47°35' W 003°12'1 2.6
2017-Aug-28 19:00N 47°36' W 003°11'1 2.9
2017-Aug-28 18:30N 47°35' W 003°13'0 0.6
2017-Aug-28 18:00N 47°35' W 003°13'0 0.6
2017-Aug-28 17:31N 47°35' W 003°13'2 3.7
2017-Aug-28 17:00N 47°35' W 003°15'2 3.8
2017-Aug-28 16:30N 47°34' W 003°18'1 2.5
2017-Aug-28 16:00N 47°35' W 003°16'2 3.5
2017-Aug-28 15:30N 47°35' W 003°14'2 3.4
2017-Aug-28 15:00N 47°36' W 003°11'0 0.7
2017-Aug-28 14:30N 47°35' W 003°12'1 1.4
2017-Aug-28 14:00N 47°35' W 003°13'0 0.2
2017-Aug-28 13:30N 47°35' W 003°13'0 0.6
2017-Aug-28 13:00N 47°35' W 003°12'1 1.2
2017-Aug-28 12:30N 47°35' W 003°13'1 1.8
2017-Aug-28 12:00N 47°35' W 003°12'1 1.0
2017-Aug-28 11:30N 47°35' W 003°12'1 1.4
2017-Aug-28 11:00N 47°35' W 003°13'2 3.3
2017-Aug-28 10:30N 47°35' W 003°11'0 0.6
2017-Aug-28 10:00N 47°36' W 003°11'0 0.4
2017-Aug-28 09:30N 47°36' W 003°11'1 1.1
2017-Aug-28 09:00N 47°36' W 003°12'1 1.9
2017-Aug-28 08:30N 47°36' W 003°10'1 2.6
2017-Aug-28 08:00N 47°35' W 003°12'1 2.6
2017-Aug-28 07:31N 47°36' W 003°10'1 2.7
2017-Aug-28 07:00N 47°35' W 003°12'2 4.0
2017-Aug-28 06:30N 47°35' W 003°15'1 2.4
2017-Aug-28 06:00N 47°35' W 003°13'1 2.4
2017-Aug-28 05:30N 47°35' W 003°12'2 3.4
2017-Aug-28 05:00N 47°35' W 003°14'1 2.0
2017-Aug-28 04:30N 47°35' W 003°13'0 0.7
2017-Aug-28 04:00N 47°35' W 003°12'1 1.3
2017-Aug-28 03:30N 47°35' W 003°13'1 2.0
2017-Aug-28 03:00N 47°35' W 003°12'1 2.7
2017-Aug-28 02:31N 47°35' W 003°14'1 2.8
2017-Aug-28 02:00N 47°35' W 003°12'1 2.6
2017-Aug-28 01:31N 47°35' W 003°13'1 2.0
2017-Aug-28 01:00N 47°35' W 003°12'1 1.0
2017-Aug-28 00:30N 47°35' W 003°13'2 3.5
2017-Aug-28 00:01N 47°36' W 003°10'1 2.9
2017-Aug-27 23:31N 47°35' W 003°12'1 2.8
2017-Aug-27 23:01N 47°36' W 003°10'1 2.6
2017-Aug-27 22:31N 47°35' W 003°12'1 2.1
2017-Aug-27 22:00N 47°36' W 003°11'1 1.1
2017-Aug-27 21:30N 47°36' W 003°12'0 0.9
2017-Aug-27 21:00N 47°36' W 003°11'1 2.7
2017-Aug-27 20:31N 47°35' W 003°13'0 0.9
2017-Aug-27 20:00N 47°35' W 003°12'1 2.0
2017-Aug-27 19:30N 47°36' W 003°11'2 3.4
2017-Aug-27 19:00N 47°35' W 003°13'1 2.9
2017-Aug-27 18:30N 47°35' W 003°15'1 2.5
2017-Aug-27 18:00N 47°34' W 003°17'1 2.5
2017-Aug-27 17:30N 47°34' W 003°19'1 1.8
2017-Aug-27 17:00N 47°34' W 003°17'1 2.6
2017-Aug-27 16:30N 47°35' W 003°16'2 3.0
2017-Aug-27 16:00N 47°35' W 003°13'2 3.1
2017-Aug-27 15:30N 47°36' W 003°11'0 0.7
2017-Aug-27 15:00N 47°35' W 003°11'2 3.4
2017-Aug-27 14:30N 47°35' W 003°13'0 1.0
2017-Aug-27 14:00N 47°35' W 003°13'1 2.5
2017-Aug-27 13:31N 47°36' W 003°11'2 3.5
2017-Aug-27 13:00N 47°35' W 003°13'1 1.5
2017-Aug-27 12:30N 47°35' W 003°12'1 1.0
2017-Aug-27 12:00N 47°35' W 003°12'1 2.9
2017-Aug-27 11:30N 47°35' W 003°14'0 0.9
2017-Aug-27 11:00N 47°35' W 003°14'2 3.2
2017-Aug-27 10:30N 47°34' W 003°16'2 3.3
2017-Aug-27 10:00N 47°34' W 003°19'2 3.2
2017-Aug-27 09:30N 47°34' W 003°17'2 3.8
2017-Aug-27 09:00N 47°35' W 003°14'2 3.8
2017-Aug-27 08:30N 47°36' W 003°11'0 0.6
2017-Aug-27 08:00N 47°36' W 003°11'2 3.4
2017-Aug-27 07:30N 47°35' W 003°13'2 3.2
2017-Aug-27 07:00N 47°35' W 003°15'2 3.3
2017-Aug-27 06:30N 47°34' W 003°18'0 0.6
2017-Aug-27 06:00N 47°34' W 003°17'0 0.1
2017-Aug-27 05:30N 47°34' W 003°17'1 1.3
2017-Aug-27 05:00N 47°34' W 003°18'2 3.3
2017-Aug-27 04:30N 47°35' W 003°16'2 3.4
2017-Aug-27 04:00N 47°35' W 003°13'1 2.7
2017-Aug-27 03:30N 47°36' W 003°12'2 3.3
2017-Aug-27 03:00N 47°35' W 003°14'2 3.2
2017-Aug-27 02:30N 47°35' W 003°16'2 3.0
2017-Aug-27 02:01N 47°34' W 003°18'1 2.5
2017-Aug-27 01:30N 47°34' W 003°16'2 3.9
2017-Aug-27 01:00N 47°35' W 003°14'1 1.3
2017-Aug-27 00:30N 47°35' W 003°15'1 2.9
2017-Aug-27 00:00N 47°34' W 003°17'1 2.8
2017-Aug-26 23:30N 47°34' W 003°19'2 3.6
2017-Aug-26 23:00N 47°34' W 003°16'2 4.0
2017-Aug-26 22:30N 47°35' W 003°13'1 1.2
2017-Aug-26 22:00N 47°35' W 003°13'2 3.0
2017-Aug-26 21:30N 47°35' W 003°15'2 3.0
2017-Aug-26 21:00N 47°34' W 003°17'2 3.3
2017-Aug-26 20:30N 47°34' W 003°19'1 1.6
2017-Aug-26 20:00N 47°33' W 003°18'0 0.6
2017-Aug-26 19:30N 47°34' W 003°18'1 2.4
2017-Aug-26 19:00N 47°35' W 003°19'5 9.3
2017-Aug-26 18:30N 47°39' W 003°21'4 8.4
2017-Aug-26 18:01N 47°43' W 003°22'2 2.9
2017-Aug-26 17:29N 47°45' W 003°21'0 0.0
2017-Aug-26 16:59N 47°45' W 003°21'0 0.0
2017-Aug-26 16:29N 47°45' W 003°21'0 0.0
2017-Aug-26 15:59N 47°45' W 003°21'0 0.0
2017-Aug-26 15:29N 47°45' W 003°21'0 0.0
2017-Aug-26 14:59N 47°45' W 003°21'0 0.0
2017-Aug-26 13:59N 47°45' W 003°21'0 0.0
2017-Aug-26 13:29N 47°45' W 003°21'0 0.0
2017-Aug-26 12:59N 47°45' W 003°21'0 0.0
2017-Aug-26 12:29N 47°45' W 003°21'0 0.0
2017-Aug-26 12:00N 47°45' W 003°21'4 7.1
2017-Aug-26 11:30N 47°41' W 003°22'4 7.0
2017-Aug-26 11:00N 47°39' W 003°19'4 8.7
2017-Aug-26 10:30N 47°37' W 003°13'1 2.8
2017-Aug-26 10:00N 47°36' W 003°12'2 3.8
2017-Aug-26 09:30N 47°35' W 003°14'2 3.8
2017-Aug-26 09:00N 47°34' W 003°17'1 2.3
2017-Aug-26 08:30N 47°34' W 003°19'2 4.1
2017-Aug-26 08:00N 47°35' W 003°16'2 4.1
2017-Aug-26 07:30N 47°35' W 003°13'0 0.9
2017-Aug-26 07:00N 47°35' W 003°12'2 3.8
2017-Aug-26 06:30N 47°35' W 003°15'2 3.8
2017-Aug-26 06:00N 47°34' W 003°18'0 0.4
2017-Aug-26 05:30N 47°34' W 003°18'1 2.9
2017-Aug-26 05:00N 47°35' W 003°16'0 0.5
2017-Aug-26 04:30N 47°35' W 003°16'2 3.3
2017-Aug-26 04:00N 47°35' W 003°13'1 2.2
2017-Aug-26 03:30N 47°36' W 003°12'2 3.5
2017-Aug-26 03:00N 47°35' W 003°14'2 3.2
2017-Aug-26 02:30N 47°34' W 003°16'1 3.0
2017-Aug-26 02:01N 47°34' W 003°19'1 2.7
2017-Aug-26 01:30N 47°35' W 003°20'1 2.1
2017-Aug-26 01:00N 47°34' W 003°19'2 3.9
2017-Aug-26 00:30N 47°35' W 003°16'2 3.8
2017-Aug-26 00:00N 47°35' W 003°14'1 1.9
2017-Aug-25 23:30N 47°35' W 003°12'2 3.3
2017-Aug-25 23:00N 47°35' W 003°14'2 3.2
2017-Aug-25 22:30N 47°34' W 003°17'2 3.1
2017-Aug-25 22:00N 47°34' W 003°19'0 0.5
2017-Aug-25 21:30N 47°34' W 003°19'1 2.2
2017-Aug-25 21:00N 47°34' W 003°17'1 2.8
2017-Aug-25 20:30N 47°35' W 003°15'1 2.9
2017-Aug-25 20:00N 47°35' W 003°13'1 2.8
2017-Aug-25 19:31N 47°36' W 003°11'0 0.7
2017-Aug-25 19:00N 47°36' W 003°12'1 2.5
2017-Aug-25 18:30N 47°35' W 003°13'1 2.4
2017-Aug-25 18:00N 47°35' W 003°15'1 2.3
2017-Aug-25 17:30N 47°34' W 003°17'1 2.0
2017-Aug-25 17:00N 47°34' W 003°18'0 0.3
2017-Aug-25 16:30N 47°34' W 003°18'0 0.5
2017-Aug-25 16:00N 47°34' W 003°18'1 2.5
2017-Aug-25 15:30N 47°33' W 003°19'1 2.2
2017-Aug-25 15:00N 47°34' W 003°18'0 0.9
2017-Aug-25 14:31N 47°34' W 003°18'1 1.4
2017-Aug-25 13:30N 47°33' W 003°19'0 0.5
2017-Aug-25 13:00N 47°34' W 003°19'2 3.4
2017-Aug-25 12:30N 47°33' W 003°21'1 1.2
2017-Aug-25 12:00N 47°33' W 003°22'0 0.4
2017-Aug-25 11:31N 47°33' W 003°22'1 1.5
2017-Aug-25 11:00N 47°32' W 003°23'0 0.1
2017-Aug-25 10:31N 47°32' W 003°23'2 3.7
2017-Aug-25 10:00N 47°33' W 003°21'2 4.0
2017-Aug-25 09:30N 47°34' W 003°18'2 3.7
2017-Aug-25 09:00N 47°33' W 003°20'0 0.6
2017-Aug-25 08:31N 47°33' W 003°21'2 3.3
2017-Aug-25 08:00N 47°34' W 003°19'0 0.3
2017-Aug-25 07:30N 47°34' W 003°19'1 2.4
2017-Aug-25 07:00N 47°33' W 003°20'1 1.9
2017-Aug-25 06:30N 47°34' W 003°19'0 0.9
2017-Aug-25 06:00N 47°34' W 003°18'1 1.2
2017-Aug-25 05:30N 47°34' W 003°19'1 2.5
2017-Aug-25 05:00N 47°33' W 003°21'2 3.6
2017-Aug-25 04:30N 47°34' W 003°18'0 0.4
2017-Aug-25 04:00N 47°34' W 003°19'1 2.9
2017-Aug-25 03:30N 47°33' W 003°20'2 3.4
2017-Aug-25 03:00N 47°34' W 003°18'0 0.7
2017-Aug-25 02:30N 47°34' W 003°19'1 3.0
2017-Aug-25 02:00N 47°33' W 003°21'2 3.6
2017-Aug-25 01:30N 47°34' W 003°18'1 1.1
2017-Aug-25 01:00N 47°34' W 003°19'1 2.1
2017-Aug-25 00:31N 47°33' W 003°20'2 3.9
2017-Aug-25 00:00N 47°34' W 003°18'1 1.1
2017-Aug-24 23:30N 47°34' W 003°19'1 2.6
2017-Aug-24 23:00N 47°33' W 003°20'1 1.1
2017-Aug-24 22:30N 47°34' W 003°19'1 2.2
2017-Aug-24 22:00N 47°34' W 003°18'2 3.1
2017-Aug-24 21:30N 47°33' W 003°20'1 1.5
2017-Aug-24 21:00N 47°34' W 003°19'1 1.2
2017-Aug-24 20:30N 47°34' W 003°18'1 3.0
2017-Aug-24 20:00N 47°33' W 003°20'1 2.0
2017-Aug-24 19:30N 47°34' W 003°19'0 1.0
2017-Aug-24 19:00N 47°34' W 003°18'2 3.1
2017-Aug-24 18:30N 47°33' W 003°20'1 1.3
2017-Aug-24 18:00N 47°33' W 003°20'1 1.7
2017-Aug-24 17:30N 47°33' W 003°20'1 1.0
2017-Aug-24 17:00N 47°33' W 003°20'0 0.4
2017-Aug-24 16:30N 47°33' W 003°20'0 0.2
2017-Aug-24 16:01N 47°33' W 003°20'0 0.6
2017-Aug-24 15:30N 47°33' W 003°20'0 0.9
2017-Aug-24 15:00N 47°33' W 003°20'1 1.0
2017-Aug-24 14:30N 47°33' W 003°20'1 1.3
2017-Aug-24 14:00N 47°33' W 003°20'1 1.6
2017-Aug-24 13:30N 47°33' W 003°21'1 1.5
2017-Aug-24 13:00N 47°33' W 003°20'1 1.3
2017-Aug-24 12:30N 47°33' W 003°20'1 1.6
2017-Aug-24 12:00N 47°34' W 003°20'1 1.3
2017-Aug-24 11:30N 47°33' W 003°21'1 1.4
2017-Aug-24 11:01N 47°34' W 003°20'1 1.8
2017-Aug-24 10:30N 47°33' W 003°20'1 2.7
2017-Aug-24 10:00N 47°33' W 003°22'0 0.4
2017-Aug-24 09:30N 47°33' W 003°22'1 2.3
2017-Aug-24 09:00N 47°33' W 003°20'2 3.5
2017-Aug-24 08:30N 47°33' W 003°23'1 2.1
2017-Aug-24 08:00N 47°33' W 003°21'0 0.6
2017-Aug-24 07:30N 47°33' W 003°21'1 2.8
2017-Aug-24 07:00N 47°33' W 003°23'1 2.9
2017-Aug-24 06:30N 47°33' W 003°20'1 1.4
2017-Aug-24 06:00N 47°33' W 003°19'1 1.7
2017-Aug-24 05:30N 47°33' W 003°21'1 2.2
2017-Aug-24 05:00N 47°33' W 003°22'1 2.7
2017-Aug-24 04:30N 47°33' W 003°20'1 1.1
2017-Aug-24 04:00N 47°33' W 003°21'1 1.5
2017-Aug-24 03:30N 47°33' W 003°22'1 2.8
2017-Aug-24 03:00N 47°33' W 003°20'1 1.3
2017-Aug-24 02:30N 47°33' W 003°21'1 1.9
2017-Aug-24 02:00N 47°33' W 003°22'1 2.8
2017-Aug-24 01:30N 47°33' W 003°20'0 0.8
2017-Aug-24 01:00N 47°33' W 003°21'1 2.1
2017-Aug-24 00:31N 47°33' W 003°22'1 2.7
2017-Aug-24 00:00N 47°33' W 003°21'0 0.9
2017-Aug-23 23:30N 47°33' W 003°21'1 1.5
2017-Aug-23 23:00N 47°33' W 003°22'1 2.5
2017-Aug-23 22:30N 47°32' W 003°23'2 3.4
2017-Aug-23 22:01N 47°33' W 003°22'1 2.7
2017-Aug-23 21:30N 47°32' W 003°23'0 0.9
2017-Aug-23 21:00N 47°32' W 003°23'0 0.8
2017-Aug-23 20:31N 47°33' W 003°22'1 2.0
2017-Aug-23 20:00N 47°33' W 003°21'5 9.5
2017-Aug-23 19:30N 47°38' W 003°21'5 9.7
2017-Aug-23 19:01N 47°43' W 003°22'2 4.1
2017-Aug-23 18:30N 47°45' W 003°21'0 0.0
2017-Aug-23 17:58N 47°45' W 003°21'0 0.0
2017-Aug-23 17:28N 47°45' W 003°21'0 0.0
2017-Aug-23 16:58N 47°45' W 003°21'0 0.0
2017-Aug-23 16:28N 47°45' W 003°21'0 0.0
2017-Aug-23 15:58N 47°45' W 003°21'0 0.0
2017-Aug-23 15:28N 47°45' W 003°21'0 0.0
2017-Aug-23 14:58N 47°45' W 003°21'0 0.0
2017-Aug-23 14:28N 47°45' W 003°21'0 0.0
2017-Aug-23 13:28N 47°45' W 003°21'0 0.0
2017-Aug-23 12:58N 47°45' W 003°21'0 0.0
2017-Aug-23 12:28N 47°45' W 003°21'0 0.0
2017-Aug-23 11:58N 47°45' W 003°21'0 0.0
2017-Aug-23 11:28N 47°45' W 003°21'0 0.0
2017-Aug-23 10:58N 47°45' W 003°21'0 0.0
2017-Aug-23 10:28N 47°45' W 003°21'0 0.0
2017-Aug-23 09:58N 47°45' W 003°21'0 0.0
2017-Aug-23 09:28N 47°45' W 003°21'0 0.0
2017-Aug-23 08:58N 47°45' W 003°21'0 0.0
2017-Aug-23 08:28N 47°45' W 003°21'0 0.0
2017-Aug-23 07:58N 47°45' W 003°21'0 0.0
2017-Aug-23 07:28N 47°45' W 003°21'0 0.0
2017-Aug-23 06:58N 47°45' W 003°21'0 0.0
2017-Aug-23 06:28N 47°45' W 003°21'0 0.0
2017-Aug-23 05:58N 47°45' W 003°21'0 0.0
2017-Aug-23 05:28N 47°45' W 003°21'0 0.0
2017-Aug-23 04:58N 47°45' W 003°21'0 0.0
2017-Aug-23 04:28N 47°45' W 003°21'0 0.0
2017-Aug-23 03:58N 47°45' W 003°21'0 0.0
2017-Aug-23 03:28N 47°45' W 003°21'  

Dump ship's entire track history